createdAt,value
2023-10-17T00:01:02.148Z,4.72
2023-10-17T00:03:30.914Z,3.13
2023-10-17T00:06:00.238Z,3.08
2023-10-17T00:08:29.606Z,3.33
2023-10-17T00:10:58.944Z,4.18
2023-10-17T00:13:39.873Z,4.57
2023-10-17T00:16:09.786Z,2.72
2023-10-17T00:18:37.994Z,2.80
2023-10-17T00:21:22.405Z,3.53
2023-10-17T00:23:52.853Z,2.78
2023-10-17T00:26:21.593Z,3.90
2023-10-17T00:28:54.297Z,2.80
2023-10-17T00:31:23.159Z,4.28
2023-10-17T00:34:14.985Z,3.20
2023-10-17T00:36:51.668Z,4.05
2023-10-17T00:39:40.956Z,3.08
2023-10-17T00:42:10.402Z,3.53
2023-10-17T00:44:48.265Z,3.35
2023-10-17T00:47:20.180Z,3.60
2023-10-17T00:49:51.250Z,3.70
2023-10-17T00:52:33.725Z,2.65
2023-10-17T00:55:04.790Z,4.35
2023-10-17T00:57:33.844Z,4.15
2023-10-17T01:00:25.099Z,4.10
2023-10-17T01:02:53.423Z,6.25
2023-10-17T01:05:22.214Z,2.78
2023-10-17T01:07:50.058Z,3.55
2023-10-17T01:10:18.413Z,3.63
2023-10-17T01:12:55.116Z,4.15
2023-10-17T01:15:34.364Z,4.80
2023-10-17T01:18:05.688Z,5.18
2023-10-17T01:20:36.658Z,4.97
2023-10-17T01:23:05.844Z,5.75
2023-10-17T01:25:42.266Z,5.57
2023-10-17T01:28:11.969Z,5.13
2023-10-17T01:30:42.429Z,3.05
2023-10-17T01:33:11.024Z,3.93
2023-10-17T01:35:41.986Z,2.83
2023-10-17T01:38:09.964Z,3.17
2023-10-17T01:40:38.848Z,4.28
2023-10-17T01:43:06.863Z,3.97
2023-10-17T01:45:39.069Z,3.50
2023-10-17T01:48:11.873Z,4.40
2023-10-17T01:50:41.307Z,3.70
2023-10-17T01:53:14.373Z,5.32
2023-10-17T01:55:46.919Z,4.05
2023-10-17T01:58:19.682Z,3.22
2023-10-17T02:00:49.460Z,5.60
2023-10-17T02:03:18.267Z,3.58
2023-10-17T02:05:46.760Z,4.40
2023-10-17T02:08:16.272Z,3.95
2023-10-17T02:10:45.224Z,3.63
2023-10-17T02:13:13.081Z,3.60
2023-10-17T02:15:41.422Z,5.85
2023-10-17T02:18:16.934Z,3.85
2023-10-17T02:20:54.253Z,5.25
2023-10-17T02:23:27.730Z,3.28
2023-10-17T02:25:56.856Z,4.70
2023-10-17T02:28:25.945Z,4.00
2023-10-17T02:30:54.317Z,3.22
2023-10-17T02:33:22.846Z,4.95
2023-10-17T02:36:05.881Z,7.25
2023-10-17T02:38:33.778Z,3.83
2023-10-17T02:41:02.960Z,3.55
2023-10-17T02:43:30.988Z,4.03
2023-10-17T02:46:05.880Z,4.93
2023-10-17T02:48:40.662Z,3.50
2023-10-17T02:51:24.866Z,5.10
2023-10-17T02:53:58.549Z,4.18
2023-10-17T02:56:27.827Z,3.53
2023-10-17T02:59:13.637Z,3.22
2023-10-17T03:01:46.569Z,3.88
2023-10-17T03:04:15.151Z,4.80
2023-10-17T03:06:46.027Z,3.90
2023-10-17T03:09:24.251Z,4.18
2023-10-17T03:11:58.778Z,3.17
2023-10-17T03:14:40.406Z,3.95
2023-10-17T03:19:39.265Z,3.08
2023-10-17T03:22:28.891Z,5.85
2023-10-17T03:25:03.575Z,4.75
2023-10-17T03:27:38.777Z,4.43
2023-10-17T03:30:12.149Z,7.18
2023-10-17T03:32:59.060Z,7.28
2023-10-17T03:35:32.557Z,4.65
2023-10-17T03:38:02.849Z,3.75
2023-10-17T03:40:36.190Z,4.50
2023-10-17T03:43:13.838Z,4.78
2023-10-17T03:45:45.783Z,4.63
2023-10-17T03:48:19.410Z,3.00
2023-10-17T03:50:48.160Z,4.25
2023-10-17T03:53:30.788Z,4.03
2023-10-17T03:56:02.462Z,5.22
2023-10-17T03:58:32.139Z,3.40
2023-10-17T04:01:07.607Z,4.97
2023-10-17T04:03:35.784Z,4.50
2023-10-17T04:06:08.396Z,4.03
2023-10-17T04:08:49.781Z,3.33
2023-10-17T04:11:27.025Z,3.42
2023-10-17T04:13:57.926Z,3.20
2023-10-17T04:16:40.093Z,4.43
2023-10-17T04:19:09.790Z,4.68
2023-10-17T04:21:47.223Z,4.55
2023-10-17T04:24:35.828Z,4.60
2023-10-17T04:27:08.480Z,3.75
2023-10-17T04:29:36.595Z,4.13
2023-10-17T04:32:13.746Z,4.45
2023-10-17T04:34:48.541Z,4.18
2023-10-17T04:37:32.577Z,4.50
2023-10-17T04:40:36.436Z,4.32
2023-10-17T04:43:33.346Z,4.57
2023-10-17T04:46:02.917Z,4.40
2023-10-17T04:48:35.649Z,3.17
2023-10-17T04:51:21.312Z,5.30
2023-10-17T04:53:49.755Z,3.90
2023-10-17T04:56:23.028Z,5.10
2023-10-17T04:58:57.878Z,3.88
2023-10-17T05:01:35.554Z,3.60
2023-10-17T05:04:18.219Z,4.30
2023-10-17T05:06:59.243Z,4.30
2023-10-17T05:09:37.208Z,3.58
2023-10-17T05:12:23.770Z,4.15
2023-10-17T05:15:10.459Z,4.15
2023-10-17T05:17:57.093Z,5.63
2023-10-17T05:20:43.860Z,3.50
2023-10-17T05:23:30.624Z,4.03
2023-10-17T05:26:27.178Z,4.25
2023-10-17T05:29:13.789Z,3.75
2023-10-17T05:32:03.467Z,4.25
2023-10-17T05:34:51.206Z,4.32
2023-10-17T05:37:37.799Z,3.97
2023-10-17T05:40:24.902Z,3.97
2023-10-17T05:43:11.897Z,4.30
2023-10-17T05:45:58.685Z,3.55
2023-10-17T05:48:45.653Z,7.78
2023-10-17T05:51:33.534Z,3.85
2023-10-17T05:57:10.974Z,4.82
2023-10-17T05:59:59.011Z,5.43
2023-10-17T06:02:45.752Z,6.93
2023-10-17T06:05:32.789Z,3.80
2023-10-17T06:08:19.550Z,3.42
2023-10-17T06:11:34.428Z,3.28
2023-10-17T06:14:20.765Z,5.78
2023-10-17T06:16:53.310Z,4.65
2023-10-17T06:19:22.944Z,4.45
2023-10-17T06:22:03.322Z,3.50
2023-10-17T06:24:54.575Z,3.17
2023-10-17T06:27:37.696Z,3.30
2023-10-17T06:30:25.659Z,4.93
2023-10-17T06:33:05.535Z,5.68
2023-10-17T06:35:33.695Z,5.38
2023-10-17T06:38:01.904Z,4.13
2023-10-17T06:40:39.217Z,3.78
2023-10-17T06:43:15.093Z,7.15
2023-10-17T06:45:55.819Z,4.45
2023-10-17T06:48:34.191Z,4.38
2023-10-17T06:51:24.504Z,5.20
2023-10-17T06:53:53.346Z,5.95
2023-10-17T06:56:22.614Z,8.55
2023-10-17T06:58:52.675Z,4.35
2023-10-17T07:01:25.112Z,5.45
2023-10-17T07:03:56.134Z,4.95
2023-10-17T07:06:27.985Z,3.60
2023-10-17T07:08:56.153Z,5.10
2023-10-17T07:11:31.158Z,5.07
2023-10-17T07:14:08.076Z,3.33
2023-10-17T07:16:41.369Z,4.25
2023-10-17T07:19:25.029Z,5.05
2023-10-17T07:22:00.785Z,5.05
2023-10-17T07:24:38.350Z,4.57
2023-10-17T07:27:34.557Z,4.38
2023-10-17T07:30:12.066Z,3.90
2023-10-17T07:32:46.824Z,5.53
2023-10-17T07:35:17.776Z,4.25
2023-10-17T07:37:58.427Z,3.47
2023-10-17T07:40:33.485Z,3.30
2023-10-17T07:43:02.498Z,7.65
2023-10-17T07:45:40.684Z,4.47
2023-10-17T07:48:21.890Z,4.15
2023-10-17T07:50:53.047Z,5.28
2023-10-17T07:53:22.299Z,2.88
2023-10-17T07:56:05.842Z,3.35
2023-10-17T07:58:47.265Z,3.05
2023-10-17T08:01:18.621Z,5.22
2023-10-17T08:03:56.533Z,3.17
2023-10-17T08:06:31.461Z,6.68
2023-10-17T08:09:00.801Z,3.22
2023-10-17T08:11:29.808Z,3.45
2023-10-17T08:14:10.143Z,4.82
2023-10-17T08:16:41.814Z,3.50
2023-10-17T08:19:16.526Z,4.18
2023-10-17T08:22:12.356Z,3.30
2023-10-17T08:24:40.277Z,3.85
2023-10-17T08:27:18.868Z,4.30
2023-10-17T08:29:49.643Z,4.55
2023-10-17T08:32:21.220Z,3.40
2023-10-17T08:37:28.116Z,3.38
2023-10-17T08:39:58.081Z,4.82
2023-10-17T08:42:32.754Z,4.03
2023-10-17T08:45:05.700Z,3.97
2023-10-17T08:47:33.857Z,3.42
2023-10-17T08:50:09.721Z,4.88
2023-10-17T08:52:40.782Z,3.58
2023-10-17T08:55:09.046Z,3.55
2023-10-17T08:57:38.973Z,5.20
2023-10-17T09:00:10.728Z,3.47
2023-10-17T09:02:44.919Z,4.93
2023-10-17T09:05:19.524Z,8.00
2023-10-17T09:07:48.676Z,4.00
2023-10-17T09:10:38.193Z,4.82
2023-10-17T09:13:16.099Z,3.67
2023-10-17T09:15:56.639Z,5.53
2023-10-17T09:18:30.617Z,4.72
2023-10-17T09:21:04.744Z,5.25
2023-10-17T09:23:32.922Z,5.20
2023-10-17T09:26:08.832Z,4.72
2023-10-17T09:28:38.872Z,4.45
2023-10-17T09:31:11.551Z,4.28
2023-10-17T09:33:46.573Z,3.90
2023-10-17T09:36:20.599Z,4.05
2023-10-17T09:38:49.587Z,4.38
2023-10-17T09:41:20.263Z,4.80
2023-10-17T09:43:52.755Z,4.45
2023-10-17T09:46:28.435Z,4.88
2023-10-17T09:49:02.269Z,5.55
2023-10-17T09:51:35.089Z,5.13
2023-10-17T09:54:05.840Z,4.82
2023-10-17T09:56:43.524Z,4.38
2023-10-17T09:59:22.790Z,7.72
2023-10-17T10:01:52.278Z,7.15
2023-10-17T10:04:21.389Z,5.20
2023-10-17T10:07:13.260Z,5.40
2023-10-17T10:09:41.347Z,5.28
2023-10-17T10:12:10.063Z,5.53
2023-10-17T10:14:44.104Z,7.85
2023-10-17T10:17:16.362Z,6.95
2023-10-17T10:19:45.107Z,4.95
2023-10-17T10:22:15.883Z,6.13
2023-10-17T10:24:48.155Z,7.18
2023-10-17T10:27:17.851Z,4.97
2023-10-17T10:29:56.821Z,5.32
2023-10-17T10:32:38.514Z,5.47
2023-10-17T10:35:09.211Z,5.93
2023-10-17T10:37:56.545Z,5.93
2023-10-17T10:40:31.684Z,5.80
2023-10-17T10:43:02.736Z,5.95
2023-10-17T10:45:39.397Z,7.80
2023-10-17T10:48:19.333Z,5.20
2023-10-17T10:50:50.198Z,7.13
2023-10-17T10:53:37.581Z,5.37
2023-10-17T10:56:10.850Z,5.68
2023-10-17T10:58:52.533Z,6.53
2023-10-17T11:03:53.872Z,5.47
2023-10-17T11:06:26.904Z,6.10
2023-10-17T11:08:56.120Z,6.40
2023-10-17T11:11:24.841Z,7.13
2023-10-17T11:13:58.818Z,8.80
2023-10-17T11:16:28.084Z,6.45
2023-10-17T11:21:27.006Z,6.20
2023-10-17T11:24:08.309Z,7.15
2023-10-17T11:26:41.019Z,7.63
2023-10-17T11:29:10.459Z,6.47
2023-10-17T11:31:42.863Z,11.00
2023-10-17T11:34:14.648Z,6.15
2023-10-17T11:36:53.981Z,6.85
2023-10-17T11:39:22.565Z,6.57
2023-10-17T11:41:56.695Z,7.30
2023-10-17T11:44:29.344Z,6.03
2023-10-17T11:47:03.206Z,5.38
2023-10-17T11:49:37.285Z,6.68
2023-10-17T11:52:12.269Z,5.55
2023-10-17T11:55:14.890Z,6.90
2023-10-17T11:57:47.737Z,6.90
2023-10-17T12:00:18.982Z,7.72
2023-10-17T12:05:21.965Z,7.55
2023-10-17T12:08:00.010Z,5.88
2023-10-17T12:10:32.209Z,6.97
2023-10-17T12:13:07.697Z,7.70
2023-10-17T12:15:36.049Z,6.93
2023-10-17T12:18:04.221Z,6.75
2023-10-17T12:20:32.153Z,5.32
2023-10-17T12:23:01.794Z,6.43
2023-10-17T12:25:35.114Z,7.80
2023-10-17T12:28:03.873Z,5.32
2023-10-17T12:30:37.256Z,7.82
2023-10-17T12:33:07.645Z,6.40
2023-10-17T12:35:35.735Z,6.78
2023-10-17T12:38:16.148Z,6.00
2023-10-17T12:40:44.575Z,7.00
2023-10-17T12:43:13.457Z,8.52
2023-10-17T12:45:43.358Z,5.90
2023-10-17T12:48:12.939Z,6.05
2023-10-17T12:50:44.931Z,5.77
2023-10-17T12:53:15.122Z,6.63
2023-10-17T12:55:43.276Z,5.70
2023-10-17T12:58:20.122Z,6.28
2023-10-17T13:00:49.013Z,8.10
2023-10-17T13:03:18.611Z,6.40
2023-10-17T13:05:47.381Z,5.95
2023-10-17T13:08:16.482Z,7.22
2023-10-17T13:10:44.817Z,7.80
2023-10-17T13:13:12.670Z,6.28
2023-10-17T13:15:41.323Z,7.30
2023-10-17T13:18:12.053Z,5.95
2023-10-17T13:20:53.451Z,7.20
2023-10-17T13:23:33.587Z,9.27
2023-10-17T13:26:01.841Z,5.97
2023-10-17T13:28:30.573Z,7.70
2023-10-17T13:30:59.813Z,7.63
2023-10-17T13:33:28.616Z,6.55
2023-10-17T13:35:56.486Z,8.18
2023-10-17T13:38:24.370Z,6.68
2023-10-17T13:40:52.814Z,10.10
2023-10-17T13:43:20.738Z,6.50
2023-10-17T13:45:48.584Z,8.90
2023-10-17T13:48:16.946Z,6.68
2023-10-17T13:50:45.171Z,9.93
2023-10-17T13:53:18.105Z,9.80
2023-10-17T13:55:46.633Z,9.25
2023-10-17T13:58:15.071Z,9.32
2023-10-17T14:00:52.738Z,9.48
2023-10-17T14:03:23.942Z,9.07
2023-10-17T14:05:53.336Z,12.07
2023-10-17T14:08:26.441Z,10.60
2023-10-17T14:10:54.382Z,9.48
2023-10-17T14:13:22.453Z,10.50
2023-10-17T14:15:58.500Z,8.38
2023-10-17T14:18:40.925Z,6.90
2023-10-17T14:21:27.732Z,6.63
2023-10-17T14:24:00.115Z,6.60
2023-10-17T14:26:31.297Z,7.25
2023-10-17T14:29:04.788Z,7.03
2023-10-17T14:31:33.789Z,7.75
2023-10-17T14:34:02.369Z,5.88
2023-10-17T14:36:30.842Z,6.93
2023-10-17T14:39:00.682Z,7.65
2023-10-17T14:41:31.629Z,6.07
2023-10-17T14:43:59.435Z,6.80
2023-10-17T14:46:27.438Z,7.38
2023-10-17T14:48:55.846Z,6.25
2023-10-17T14:51:26.106Z,9.65
2023-10-17T14:53:54.030Z,5.50
2023-10-17T14:56:23.083Z,8.00
2023-10-17T14:58:51.610Z,5.55
2023-10-17T15:01:21.139Z,6.85
2023-10-17T15:03:52.072Z,5.93
2023-10-17T15:06:20.951Z,6.18
2023-10-17T15:08:50.028Z,7.35
2023-10-17T15:11:18.110Z,8.70
2023-10-17T15:13:45.890Z,5.88
2023-10-17T15:16:17.174Z,6.70
2023-10-17T15:18:45.867Z,6.93
2023-10-17T15:21:14.958Z,5.82
2023-10-17T15:23:44.258Z,5.10
2023-10-17T15:26:12.450Z,6.65
2023-10-17T15:28:50.132Z,5.03
2023-10-17T15:31:18.170Z,5.55
2023-10-17T15:33:46.651Z,8.75
2023-10-17T15:36:15.801Z,6.38
2023-10-17T15:38:44.614Z,5.50
2023-10-17T15:41:17.634Z,5.60
2023-10-17T15:43:46.661Z,7.10
2023-10-17T15:46:16.870Z,7.10
2023-10-17T15:48:45.486Z,5.82
2023-10-17T15:51:21.653Z,5.35
2023-10-17T15:53:50.694Z,5.43
2023-10-17T15:56:18.640Z,5.88
2023-10-17T15:58:47.397Z,5.90
2023-10-17T16:01:15.475Z,5.32
2023-10-17T16:03:47.840Z,4.25
2023-10-17T16:06:19.027Z,5.57
2023-10-17T16:08:49.625Z,4.85
2023-10-17T16:11:18.861Z,4.63
2023-10-17T16:13:47.115Z,5.45
2023-10-17T16:16:15.541Z,4.10
2023-10-17T16:18:44.089Z,4.20
2023-10-17T16:21:12.158Z,5.38
2023-10-17T16:23:40.376Z,3.83
2023-10-17T16:26:14.550Z,5.00
2023-10-17T16:28:42.606Z,7.07
2023-10-17T16:31:14.494Z,5.75
2023-10-17T16:33:43.114Z,7.38
2023-10-17T16:36:11.581Z,6.50
2023-10-17T16:38:40.279Z,9.05
2023-10-17T16:41:10.248Z,7.75
2023-10-17T16:43:38.473Z,4.90
2023-10-17T16:46:06.792Z,4.35
2023-10-17T16:48:35.189Z,3.78
2023-10-17T16:51:03.160Z,4.25
2023-10-17T16:53:32.462Z,4.15
2023-10-17T16:56:03.369Z,5.03
2023-10-17T16:58:33.446Z,6.28
2023-10-17T17:01:11.222Z,9.32
2023-10-17T17:03:40.436Z,11.30
2023-10-17T17:06:08.575Z,8.32
2023-10-17T17:08:36.918Z,8.70
2023-10-17T17:11:08.800Z,9.38
2023-10-17T17:13:39.621Z,6.95
2023-10-17T17:16:08.668Z,5.55
2023-10-17T17:18:47.204Z,5.80
2023-10-17T17:21:20.819Z,4.85
2023-10-17T17:23:49.738Z,4.22
2023-10-17T17:26:18.767Z,5.40
2023-10-17T17:28:47.235Z,5.57
2023-10-17T17:31:16.005Z,4.95
2023-10-17T17:33:45.023Z,4.43
2023-10-17T17:36:13.037Z,4.95
2023-10-17T17:38:44.567Z,4.15
2023-10-17T17:41:13.723Z,8.32
2023-10-17T17:43:41.893Z,4.65
2023-10-17T17:46:11.239Z,3.83
2023-10-17T17:48:39.918Z,4.75
2023-10-17T17:51:08.725Z,4.95
2023-10-17T17:53:37.201Z,3.90
2023-10-17T17:56:05.817Z,4.55
2023-10-17T17:58:35.407Z,9.57
2023-10-17T18:01:06.327Z,3.97
2023-10-17T18:03:35.585Z,4.45
2023-10-17T18:06:07.841Z,5.50
2023-10-17T18:08:37.396Z,5.03
2023-10-17T18:11:06.270Z,3.97
2023-10-17T18:13:34.388Z,3.35
2023-10-17T18:16:04.425Z,3.80
2023-10-17T18:18:36.477Z,4.40
2023-10-17T18:21:12.366Z,6.57
2023-10-17T18:23:44.451Z,3.22
2023-10-17T18:26:19.354Z,3.25
2023-10-17T18:28:47.337Z,3.13
2023-10-17T18:31:18.506Z,3.85
2023-10-17T18:33:48.441Z,3.50
2023-10-17T18:36:19.616Z,3.65
2023-10-17T18:38:47.721Z,3.80
2023-10-17T18:41:15.909Z,6.40
2023-10-17T18:43:44.455Z,4.35
2023-10-17T18:46:14.012Z,3.47
2023-10-17T18:48:43.091Z,5.28
2023-10-17T18:51:14.240Z,3.95
2023-10-17T18:53:43.107Z,5.53
2023-10-17T18:56:11.920Z,5.03
2023-10-17T18:58:42.555Z,7.47
2023-10-17T19:01:15.661Z,4.30
2023-10-17T19:03:47.138Z,4.28
2023-10-17T19:06:16.774Z,4.13
2023-10-17T19:08:44.992Z,7.10
2023-10-17T19:11:13.971Z,5.95
2023-10-17T19:13:42.151Z,4.18
2023-10-17T19:16:11.576Z,5.28
2023-10-17T19:18:41.824Z,4.97
2023-10-17T19:21:12.709Z,6.50
2023-10-17T19:23:42.550Z,8.00
2023-10-17T19:26:14.884Z,7.18
2023-10-17T19:28:44.673Z,5.38
2023-10-17T19:31:15.990Z,7.45
2023-10-17T19:33:43.978Z,6.50
2023-10-17T19:36:12.800Z,6.50
2023-10-17T19:38:41.278Z,5.47
2023-10-17T19:41:12.672Z,4.72
2023-10-17T19:43:42.837Z,3.75
2023-10-17T19:46:11.956Z,4.70
2023-10-17T19:48:40.221Z,4.30
2023-10-17T19:51:08.825Z,5.75
2023-10-17T19:53:39.717Z,5.00
2023-10-17T19:56:08.772Z,7.20
2023-10-17T19:58:37.819Z,8.10
2023-10-17T20:01:09.550Z,8.30
2023-10-17T20:03:37.609Z,10.43
2023-10-17T20:06:06.801Z,11.63
2023-10-17T20:08:35.053Z,11.98
2023-10-17T20:11:07.176Z,7.68
2023-10-17T20:13:36.364Z,7.78
2023-10-17T20:16:12.249Z,7.90
2023-10-17T20:18:42.031Z,6.63
2023-10-17T20:21:13.507Z,7.32
2023-10-17T20:23:42.721Z,6.60
2023-10-17T20:26:10.629Z,4.63
2023-10-17T20:28:39.772Z,4.00
2023-10-17T20:31:20.733Z,4.53
2023-10-17T20:33:55.184Z,5.40
2023-10-17T20:36:23.238Z,6.75
2023-10-17T20:38:52.437Z,6.97
2023-10-17T20:41:23.430Z,5.07
2023-10-17T20:43:51.903Z,5.70
2023-10-17T20:46:20.380Z,6.07
2023-10-17T20:48:50.215Z,5.68
2023-10-17T20:51:18.298Z,5.38
2023-10-17T20:53:46.429Z,4.55
2023-10-17T20:56:26.149Z,4.20
2023-10-17T20:59:02.773Z,5.38
2023-10-17T21:01:31.165Z,4.85
2023-10-17T21:03:59.442Z,4.03
2023-10-17T21:06:27.481Z,3.70
2023-10-17T21:08:55.624Z,3.58
2023-10-17T21:11:24.045Z,4.32
2023-10-17T21:13:51.897Z,4.88
2023-10-17T21:16:21.273Z,6.05
2023-10-17T21:18:49.993Z,4.28
2023-10-17T21:21:18.688Z,4.00
2023-10-17T21:23:47.081Z,4.18
2023-10-17T21:26:15.010Z,3.65
2023-10-17T21:28:42.891Z,3.88
2023-10-17T21:31:11.327Z,5.45
2023-10-17T21:33:39.646Z,5.00
2023-10-17T21:36:08.282Z,4.80
2023-10-17T21:38:39.371Z,4.32
2023-10-17T21:41:09.273Z,6.57
2023-10-17T21:43:37.694Z,4.15
2023-10-17T21:46:08.819Z,5.68
2023-10-17T21:48:46.182Z,5.53
2023-10-17T21:51:20.079Z,5.50
2023-10-17T21:53:48.563Z,5.00
2023-10-17T21:56:17.761Z,3.95
2023-10-17T21:58:50.575Z,5.03
2023-10-17T22:01:22.481Z,4.95
2023-10-17T22:03:50.746Z,4.10
2023-10-17T22:06:22.157Z,4.82
2023-10-17T22:08:50.714Z,4.95
2023-10-17T22:11:20.228Z,6.70
2023-10-17T22:13:53.368Z,6.05
2023-10-17T22:16:22.097Z,6.05
2023-10-17T22:18:50.854Z,4.55
2023-10-17T22:21:22.282Z,5.95
2023-10-17T22:23:52.007Z,6.13
2023-10-17T22:26:20.378Z,5.15
2023-10-17T22:28:48.381Z,6.15
2023-10-17T22:31:17.503Z,4.38
2023-10-17T22:33:45.474Z,4.45
2023-10-17T22:36:13.392Z,5.65
2023-10-17T22:38:41.918Z,5.75
2023-10-17T22:41:11.629Z,5.10
2023-10-17T22:43:40.016Z,9.40
2023-10-17T22:46:10.092Z,6.07
2023-10-17T22:48:38.902Z,6.80
2023-10-17T22:51:07.528Z,8.20
2023-10-17T22:53:37.597Z,4.45
2023-10-17T22:56:10.775Z,6.32
2023-10-17T22:58:42.737Z,4.82
2023-10-17T23:01:14.136Z,6.57
2023-10-17T23:03:42.612Z,5.75
2023-10-17T23:06:11.519Z,6.13
2023-10-17T23:08:39.620Z,5.78
2023-10-17T23:11:07.961Z,7.57
2023-10-17T23:13:35.949Z,6.50
2023-10-17T23:16:09.627Z,5.38
2023-10-17T23:18:39.682Z,5.03
2023-10-17T23:21:08.117Z,5.57
2023-10-17T23:23:36.039Z,5.82
2023-10-17T23:26:04.006Z,5.25
2023-10-17T23:28:32.473Z,5.85
2023-10-17T23:31:01.644Z,6.35
2023-10-17T23:33:31.258Z,6.47
2023-10-17T23:35:59.217Z,5.50
2023-10-17T23:38:27.200Z,8.02
2023-10-17T23:40:54.975Z,6.05
2023-10-17T23:43:25.915Z,6.07
2023-10-17T23:45:53.736Z,7.03
2023-10-17T23:48:27.776Z,6.35
2023-10-17T23:50:57.482Z,6.82
2023-10-17T23:53:28.947Z,8.18
2023-10-17T23:56:02.373Z,6.82
2023-10-17T23:58:33.605Z,6.55
